sensor_id;sensor_type;location;lat;lon;timestamp;pressure;altitude;pressure_sealevel;temperature;humidity
69737;BME280;64476;55.004;73.342;2023-06-14T00:01:19;101328.59;;;7.99;51.41
69737;BME280;64476;55.004;73.342;2023-06-14T00:04:23;101325.03;;;8.00;51.51
69737;BME280;64476;55.004;73.342;2023-06-14T00:07:37;101329.31;;;8.01;51.71
69737;BME280;64476;55.004;73.342;2023-06-14T00:10:52;101328.94;;;8.06;51.83
69737;BME280;64476;55.004;73.342;2023-06-14T00:13:55;101320.69;;;8.11;51.73
69737;BME280;64476;55.004;73.342;2023-06-14T00:16:57;101328.63;;;8.20;51.72
69737;BME280;64476;55.004;73.342;2023-06-14T00:20:32;101333.38;;;8.26;51.37
69737;BME280;64476;55.004;73.342;2023-06-14T00:23:37;101317.72;;;8.15;50.41
69737;BME280;64476;55.004;73.342;2023-06-14T00:26:58;101342.88;;;8.27;50.39
69737;BME280;64476;55.004;73.342;2023-06-14T00:30:00;101341.34;;;8.25;50.49
69737;BME280;64476;55.004;73.342;2023-06-14T00:33:06;101304.28;;;8.08;50.07
69737;BME280;64476;55.004;73.342;2023-06-14T00:36:11;101324.59;;;8.16;49.84
69737;BME280;64476;55.004;73.342;2023-06-14T00:39:12;101278.91;;;7.88;49.74
69737;BME280;64476;55.004;73.342;2023-06-14T00:42:27;101312.09;;;8.20;49.71
69737;BME280;64476;55.004;73.342;2023-06-14T00:45:29;101349.47;;;8.43;49.70
69737;BME280;64476;55.004;73.342;2023-06-14T00:48:33;101357.53;;;8.51;49.14
69737;BME280;64476;55.004;73.342;2023-06-14T00:51:34;101333.94;;;8.51;48.81
69737;BME280;64476;55.004;73.342;2023-06-14T00:54:36;101357.69;;;8.70;48.31
69737;BME280;64476;55.004;73.342;2023-06-14T00:57:40;101323.03;;;8.67;48.55
69737;BME280;64476;55.004;73.342;2023-06-14T01:00:53;101356.31;;;8.97;47.24
69737;BME280;64476;55.004;73.342;2023-06-14T01:03:55;101357.19;;;9.07;47.09
69737;BME280;64476;55.004;73.342;2023-06-14T01:07:05;101354.59;;;9.17;47.44
69737;BME280;64476;55.004;73.342;2023-06-14T01:13:43;101337.81;;;9.29;46.68
69737;BME280;64476;55.004;73.342;2023-06-14T01:16:47;101365.69;;;9.61;46.10
69737;BME280;64476;55.004;73.342;2023-06-14T01:19:50;101364.47;;;9.65;45.67
69737;BME280;64476;55.004;73.342;2023-06-14T01:22:59;101370.41;;;9.76;45.15
69737;BME280;64476;55.004;73.342;2023-06-14T01:26:01;101340.03;;;9.74;45.39
69737;BME280;64476;55.004;73.342;2023-06-14T01:29:11;101326.63;;;9.77;45.11
69737;BME280;64476;55.004;73.342;2023-06-14T01:32:14;101300.69;;;9.74;44.86
69737;BME280;64476;55.004;73.342;2023-06-14T01:35:16;101360.53;;;10.19;43.54
69737;BME280;64476;55.004;73.342;2023-06-14T01:38:20;101355.41;;;10.27;43.72
69737;BME280;64476;55.004;73.342;2023-06-14T01:41:23;101348.91;;;10.31;43.18
69737;BME280;64476;55.004;73.342;2023-06-14T01:44:28;101323.47;;;10.32;42.48
69737;BME280;64476;55.004;73.342;2023-06-14T01:47:32;101368.56;;;10.66;42.25
69737;BME280;64476;55.004;73.342;2023-06-14T01:50:35;101367.84;;;10.73;42.38
69737;BME280;64476;55.004;73.342;2023-06-14T01:53:39;101337.41;;;10.71;41.95
69737;BME280;64476;55.004;73.342;2023-06-14T01:56:41;101369.00;;;11.08;41.30
69737;BME280;64476;55.004;73.342;2023-06-14T01:59:43;101367.84;;;11.20;40.70
69737;BME280;64476;55.004;73.342;2023-06-14T02:02:49;101354.94;;;11.27;40.50
69737;BME280;64476;55.004;73.342;2023-06-14T02:06:24;101352.28;;;11.37;40.14
69737;BME280;64476;55.004;73.342;2023-06-14T02:09:27;101353.41;;;11.62;40.12
69737;BME280;64476;55.004;73.342;2023-06-14T02:12:30;101355.69;;;11.75;39.83
69737;BME280;64476;55.004;73.342;2023-06-14T02:15:36;101339.53;;;11.87;38.68
69737;BME280;64476;55.004;73.342;2023-06-14T02:18:38;101359.78;;;12.05;37.96
69737;BME280;64476;55.004;73.342;2023-06-14T02:22:00;101351.22;;;12.21;37.77
69737;BME280;64476;55.004;73.342;2023-06-14T02:25:02;101338.09;;;12.29;37.62
69737;BME280;64476;55.004;73.342;2023-06-14T02:28:05;101350.50;;;12.54;37.01
69737;BME280;64476;55.004;73.342;2023-06-14T02:31:06;101351.28;;;12.73;36.95
69737;BME280;64476;55.004;73.342;2023-06-14T02:34:08;101347.28;;;12.86;36.69
69737;BME280;64476;55.004;73.342;2023-06-14T02:37:10;101321.25;;;12.92;36.90
69737;BME280;64476;55.004;73.342;2023-06-14T02:40:12;101329.59;;;13.13;36.77
69737;BME280;64476;55.004;73.342;2023-06-14T02:43:17;101323.88;;;13.26;36.85
69737;BME280;64476;55.004;73.342;2023-06-14T02:46:19;101351.72;;;13.62;36.38
69737;BME280;64476;55.004;73.342;2023-06-14T02:49:53;101317.56;;;13.69;35.77
69737;BME280;64476;55.004;73.342;2023-06-14T02:52:55;101346.72;;;14.02;35.30
69737;BME280;64476;55.004;73.342;2023-06-14T02:55:58;101335.66;;;14.15;35.02
69737;BME280;64476;55.004;73.342;2023-06-14T02:59:01;101329.88;;;14.27;34.26
69737;BME280;64476;55.004;73.342;2023-06-14T03:02:07;101341.78;;;14.56;32.94
69737;BME280;64476;55.004;73.342;2023-06-14T03:05:12;101305.91;;;14.53;33.35
69737;BME280;64476;55.004;73.342;2023-06-14T03:08:17;101319.44;;;14.75;32.86
69737;BME280;64476;55.004;73.342;2023-06-14T03:11:22;101297.78;;;14.79;32.34
69737;BME280;64476;55.004;73.342;2023-06-14T03:15:00;101303.16;;;15.02;31.40
69737;BME280;64476;55.004;73.342;2023-06-14T03:18:11;101314.47;;;15.27;31.36
69737;BME280;64476;55.004;73.342;2023-06-14T03:21:17;101313.25;;;15.38;29.99
69737;BME280;64476;55.004;73.342;2023-06-14T03:24:20;101327.25;;;15.47;30.19
69737;BME280;64476;55.004;73.342;2023-06-14T03:27:22;101306.88;;;15.55;29.68
69737;BME280;64476;55.004;73.342;2023-06-14T03:30:30;101272.78;;;15.52;27.09
69737;BME280;64476;55.004;73.342;2023-06-14T03:33:37;101310.31;;;15.87;28.22
69737;BME280;64476;55.004;73.342;2023-06-14T03:36:39;101301.13;;;15.98;28.31
69737;BME280;64476;55.004;73.342;2023-06-14T03:39:41;101293.13;;;16.06;27.87
69737;BME280;64476;55.004;73.342;2023-06-14T03:42:50;101283.91;;;16.17;27.30
69737;BME280;64476;55.004;73.342;2023-06-14T03:45:52;101313.34;;;16.45;27.87
69737;BME280;64476;55.004;73.342;2023-06-14T03:48:57;101308.25;;;16.58;26.47
69737;BME280;64476;55.004;73.342;2023-06-14T03:51:59;101295.38;;;16.55;25.97
69737;BME280;64476;55.004;73.342;2023-06-14T03:55:02;101292.25;;;16.52;26.20
69737;BME280;64476;55.004;73.342;2023-06-14T03:58:05;101310.38;;;16.63;25.81
69737;BME280;64476;55.004;73.342;2023-06-14T04:01:07;101297.00;;;16.71;26.17
69737;BME280;64476;55.004;73.342;2023-06-14T04:07:46;101302.97;;;17.03;25.84
69737;BME280;64476;55.004;73.342;2023-06-14T04:10:52;101297.91;;;17.08;25.33
69737;BME280;64476;55.004;73.342;2023-06-14T04:14:25;101288.31;;;17.07;25.02
69737;BME280;64476;55.004;73.342;2023-06-14T04:17:27;101291.78;;;17.07;25.33
69737;BME280;64476;55.004;73.342;2023-06-14T04:20:29;101274.50;;;16.96;25.31
69737;BME280;64476;55.004;73.342;2023-06-14T04:23:31;101283.06;;;17.13;25.05
69737;BME280;64476;55.004;73.342;2023-06-14T04:26:36;101291.75;;;17.22;25.35
69737;BME280;64476;55.004;73.342;2023-06-14T04:29:38;101288.97;;;17.45;24.54
69737;BME280;64476;55.004;73.342;2023-06-14T04:32:45;101290.56;;;17.61;25.00
69737;BME280;64476;55.004;73.342;2023-06-14T04:35:52;101280.31;;;17.79;24.08
69737;BME280;64476;55.004;73.342;2023-06-14T04:38:56;101286.91;;;17.83;24.26
69737;BME280;64476;55.004;73.342;2023-06-14T04:42:02;101230.28;;;17.61;24.39
69737;BME280;64476;55.004;73.342;2023-06-14T04:45:06;101267.41;;;17.98;23.88
69737;BME280;64476;55.004;73.342;2023-06-14T04:48:41;101275.16;;;18.14;22.58
69737;BME280;64476;55.004;73.342;2023-06-14T04:51:45;101261.75;;;18.07;23.39
69737;BME280;64476;55.004;73.342;2023-06-14T04:54:51;101243.78;;;18.09;22.55
69737;BME280;64476;55.004;73.342;2023-06-14T04:57:56;101224.09;;;18.04;22.98
69737;BME280;64476;55.004;73.342;2023-06-14T05:00:59;101266.53;;;18.40;22.88
69737;BME280;64476;55.004;73.342;2023-06-14T05:04:01;101238.47;;;18.37;22.87
69737;BME280;64476;55.004;73.342;2023-06-14T05:07:03;101254.97;;;18.54;22.85
69737;BME280;64476;55.004;73.342;2023-06-14T05:10:06;101236.72;;;18.51;22.47
69737;BME280;64476;55.004;73.342;2023-06-14T05:13:07;101256.00;;;18.60;22.83
69737;BME280;64476;55.004;73.342;2023-06-14T05:16:10;101249.69;;;18.67;22.62
69737;BME280;64476;55.004;73.342;2023-06-14T05:22:49;101229.91;;;18.83;22.90
69737;BME280;64476;55.004;73.342;2023-06-14T05:25:53;101232.22;;;18.93;22.56
69737;BME280;64476;55.004;73.342;2023-06-14T05:28:58;101233.91;;;19.01;21.86
69737;BME280;64476;55.004;73.342;2023-06-14T05:32:02;101229.81;;;19.05;22.42
69737;BME280;64476;55.004;73.342;2023-06-14T05:35:05;101233.75;;;19.22;22.08
69737;BME280;64476;55.004;73.342;2023-06-14T05:38:07;101224.34;;;19.33;22.18
69737;BME280;64476;55.004;73.342;2023-06-14T05:41:14;101210.00;;;19.34;21.33
69737;BME280;64476;55.004;73.342;2023-06-14T05:44:16;101200.78;;;19.36;21.22
69737;BME280;64476;55.004;73.342;2023-06-14T05:47:17;101226.44;;;19.51;21.63
69737;BME280;64476;55.004;73.342;2023-06-14T05:50:19;101213.53;;;19.54;21.54
69737;BME280;64476;55.004;73.342;2023-06-14T05:53:23;101177.03;;;19.35;21.53
69737;BME280;64476;55.004;73.342;2023-06-14T05:56:25;101216.19;;;19.54;21.42
69737;BME280;64476;55.004;73.342;2023-06-14T05:59:27;101192.81;;;19.63;21.71
69737;BME280;64476;55.004;73.342;2023-06-14T06:02:30;101192.03;;;19.69;21.49
69737;BME280;64476;55.004;73.342;2023-06-14T06:05:32;101208.22;;;19.74;21.22
69737;BME280;64476;55.004;73.342;2023-06-14T06:08:34;101195.31;;;19.91;21.12
69737;BME280;64476;55.004;73.342;2023-06-14T06:11:36;101197.56;;;20.01;21.07
69737;BME280;64476;55.004;73.342;2023-06-14T06:14:38;101201.25;;;20.13;21.27
69737;BME280;64476;55.004;73.342;2023-06-14T06:17:40;101191.38;;;20.27;21.47
69737;BME280;64476;55.004;73.342;2023-06-14T06:20:52;101138.66;;;20.16;20.95
69737;BME280;64476;55.004;73.342;2023-06-14T06:23:54;101185.75;;;20.48;20.57
69737;BME280;64476;55.004;73.342;2023-06-14T06:26:56;101183.69;;;20.57;20.30
69737;BME280;64476;55.004;73.342;2023-06-14T06:29:58;101140.38;;;20.55;20.33
69737;BME280;64476;55.004;73.342;2023-06-14T06:32:59;101154.09;;;20.65;20.32
69737;BME280;64476;55.004;73.342;2023-06-14T06:36:02;101165.78;;;20.71;19.79
69737;BME280;64476;55.004;73.342;2023-06-14T06:39:35;101149.59;;;20.59;19.77
69737;BME280;64476;55.004;73.342;2023-06-14T06:42:37;101147.94;;;20.65;20.32
69737;BME280;64476;55.004;73.342;2023-06-14T06:45:40;101152.38;;;20.77;20.17
69737;BME280;64476;55.004;73.342;2023-06-14T06:48:42;101142.84;;;20.95;19.49
69737;BME280;64476;55.004;73.342;2023-06-14T06:51:59;101146.63;;;20.80;19.59
69737;BME280;64476;55.004;73.342;2023-06-14T06:55:02;101111.78;;;20.62;19.47
69737;BME280;64476;55.004;73.342;2023-06-14T06:58:06;101127.09;;;20.80;20.01
69737;BME280;64476;55.004;73.342;2023-06-14T07:01:08;101133.25;;;20.80;19.45
69737;BME280;64476;55.004;73.342;2023-06-14T07:07:15;101096.44;;;20.89;19.67
69737;BME280;64476;55.004;73.342;2023-06-14T07:10:17;101079.19;;;20.85;19.78
69737;BME280;64476;55.004;73.342;2023-06-14T07:13:20;101119.06;;;21.18;19.56
69737;BME280;64476;55.004;73.342;2023-06-14T07:16:39;101099.78;;;21.10;19.43
69737;BME280;64476;55.004;73.342;2023-06-14T07:19:44;101119.59;;;21.34;19.02
69737;BME280;64476;55.004;73.342;2023-06-14T07:22:47;101081.31;;;21.33;19.07
69737;BME280;64476;55.004;73.342;2023-06-14T07:25:52;101107.19;;;21.64;19.95
69737;BME280;64476;55.004;73.342;2023-06-14T07:28:54;101078.31;;;21.48;19.05
69737;BME280;64476;55.004;73.342;2023-06-14T07:31:55;101103.03;;;21.68;19.09
69737;BME280;64476;55.004;73.342;2023-06-14T07:34:57;101101.72;;;21.77;19.26
69737;BME280;64476;55.004;73.342;2023-06-14T07:37:59;101070.63;;;21.76;19.09
69737;BME280;64476;55.004;73.342;2023-06-14T07:41:01;101092.44;;;21.98;19.29
69737;BME280;64476;55.004;73.342;2023-06-14T07:44:35;101065.63;;;21.87;19.14
69737;BME280;64476;55.004;73.342;2023-06-14T07:47:42;101084.84;;;22.14;19.36
69737;BME280;64476;55.004;73.342;2023-06-14T07:51:16;101048.50;;;22.24;19.07
69737;BME280;64476;55.004;73.342;2023-06-14T07:54:18;101042.69;;;22.27;18.79
69737;BME280;64476;55.004;73.342;2023-06-14T07:57:20;101056.91;;;22.10;19.01
69737;BME280;64476;55.004;73.342;2023-06-14T08:00:21;101074.91;;;21.84;18.85
69737;BME280;64476;55.004;73.342;2023-06-14T08:03:23;101050.72;;;21.54;19.69
69737;BME280;64476;55.004;73.342;2023-06-14T08:06:25;101065.56;;;21.50;19.11
69737;BME280;64476;55.004;73.342;2023-06-14T08:09:27;101046.34;;;21.16;19.58
69737;BME280;64476;55.004;73.342;2023-06-14T08:12:30;101050.91;;;21.34;19.65
69737;BME280;64476;55.004;73.342;2023-06-14T08:15:32;101048.78;;;21.61;19.47
69737;BME280;64476;55.004;73.342;2023-06-14T08:18:34;101058.22;;;21.64;19.68
69737;BME280;64476;55.004;73.342;2023-06-14T08:21:37;101065.59;;;21.68;19.66
69737;BME280;64476;55.004;73.342;2023-06-14T08:24:39;101061.09;;;21.62;20.02
69737;BME280;64476;55.004;73.342;2023-06-14T08:27:43;101056.28;;;21.52;19.41
69737;BME280;64476;55.004;73.342;2023-06-14T08:30:52;101028.53;;;21.28;19.52
69737;BME280;64476;55.004;73.342;2023-06-14T08:33:54;101055.09;;;21.48;19.67
69737;BME280;64476;55.004;73.342;2023-06-14T08:37:28;101051.31;;;21.56;19.19
69737;BME280;64476;55.004;73.342;2023-06-14T08:40:37;101032.00;;;21.54;19.24
69737;BME280;64476;55.004;73.342;2023-06-14T08:44:17;101020.22;;;21.80;19.31
69737;BME280;64476;55.004;73.342;2023-06-14T08:47:18;101026.34;;;22.17;19.91
69737;BME280;64476;55.004;73.342;2023-06-14T08:50:22;101028.88;;;22.12;19.09
69737;BME280;64476;55.004;73.342;2023-06-14T08:53:25;101031.28;;;22.02;19.52
69737;BME280;64476;55.004;73.342;2023-06-14T08:56:28;100989.38;;;21.77;19.69
69737;BME280;64476;55.004;73.342;2023-06-14T08:59:46;101008.69;;;21.98;19.58
69737;BME280;64476;55.004;73.342;2023-06-14T09:02:51;100974.03;;;22.03;19.54
69737;BME280;64476;55.004;73.342;2023-06-14T09:05:57;100976.22;;;22.24;19.68
69737;BME280;64476;55.004;73.342;2023-06-14T09:09:00;100981.91;;;22.46;19.70
69737;BME280;64476;55.004;73.342;2023-06-14T09:15:41;101000.47;;;22.60;18.83
69737;BME280;64476;55.004;73.342;2023-06-14T09:18:47;100981.69;;;22.48;18.73
69737;BME280;64476;55.004;73.342;2023-06-14T09:21:49;100982.31;;;22.32;19.09
69737;BME280;64476;55.004;73.342;2023-06-14T09:24:54;100978.16;;;22.17;19.13
69737;BME280;64476;55.004;73.342;2023-06-14T09:27:56;100977.50;;;22.22;19.67
69737;BME280;64476;55.004;73.342;2023-06-14T09:31:00;100970.16;;;22.17;19.62
69737;BME280;64476;55.004;73.342;2023-06-14T09:34:05;100970.63;;;22.14;19.71
69737;BME280;64476;55.004;73.342;2023-06-14T09:40:41;100969.41;;;22.10;19.96
69737;BME280;64476;55.004;73.342;2023-06-14T09:43:46;100963.41;;;22.15;19.95
69737;BME280;64476;55.004;73.342;2023-06-14T09:46:48;100962.03;;;22.24;20.37
69737;BME280;64476;55.004;73.342;2023-06-14T09:49:51;100974.19;;;22.38;20.17
69737;BME280;64476;55.004;73.342;2023-06-14T09:53:07;100932.97;;;21.97;19.24
69737;BME280;64476;55.004;73.342;2023-06-14T09:56:12;100941.81;;;21.98;19.44
69737;BME280;64476;55.004;73.342;2023-06-14T09:59:19;100921.09;;;21.93;20.10
69737;BME280;64476;55.004;73.342;2023-06-14T10:02:29;100938.19;;;22.22;19.90
69737;BME280;64476;55.004;73.342;2023-06-14T10:06:09;100924.78;;;22.22;19.65
69737;BME280;64476;55.004;73.342;2023-06-14T10:09:11;100908.72;;;22.11;20.33
69737;BME280;64476;55.004;73.342;2023-06-14T10:12:16;100927.94;;;22.31;20.20
69737;BME280;64476;55.004;73.342;2023-06-14T10:16:07;100919.63;;;22.51;19.55
69737;BME280;64476;55.004;73.342;2023-06-14T10:19:24;100900.56;;;22.59;20.56
69737;BME280;64476;55.004;73.342;2023-06-14T10:22:37;100904.88;;;22.95;20.57
69737;BME280;64476;55.004;73.342;2023-06-14T10:25:56;100892.88;;;23.21;20.07
69737;BME280;64476;55.004;73.342;2023-06-14T10:33:03;100880.81;;;23.76;19.02
69737;BME280;64476;55.004;73.342;2023-06-14T10:36:25;100878.53;;;24.13;18.80
69737;BME280;64476;55.004;73.342;2023-06-14T10:39:29;100867.59;;;24.49;18.34
69737;BME280;64476;55.004;73.342;2023-06-14T10:46:18;100883.59;;;25.60;17.62
69737;BME280;64476;55.004;73.342;2023-06-14T10:49:44;100856.06;;;26.07;17.28
69737;BME280;64476;55.004;73.342;2023-06-14T10:52:47;100867.31;;;26.68;16.74
69737;BME280;64476;55.004;73.342;2023-06-14T10:55:52;100842.50;;;27.14;15.99
69737;BME280;64476;55.004;73.342;2023-06-14T10:58:54;100859.16;;;27.79;15.84
69737;BME280;64476;55.004;73.342;2023-06-14T11:02:12;100840.53;;;27.87;15.38
69737;BME280;64476;55.004;73.342;2023-06-14T11:05:26;100830.75;;;27.56;15.21
69737;BME280;64476;55.004;73.342;2023-06-14T11:12:11;100830.53;;;28.34;15.72
69737;BME280;64476;55.004;73.342;2023-06-14T11:15:14;100818.53;;;28.86;14.78
69737;BME280;64476;55.004;73.342;2023-06-14T11:18:16;100824.63;;;29.17;14.87
69737;BME280;64476;55.004;73.342;2023-06-14T11:21:18;100817.44;;;29.52;15.11
69737;BME280;64476;55.004;73.342;2023-06-14T11:24:20;100822.97;;;30.10;14.69
69737;BME280;64476;55.004;73.342;2023-06-14T11:27:22;100805.00;;;30.43;14.21
69737;BME280;64476;55.004;73.342;2023-06-14T11:30:24;100798.19;;;30.51;14.10
69737;BME280;64476;55.004;73.342;2023-06-14T11:33:27;100801.47;;;30.43;14.23
69737;BME280;64476;55.004;73.342;2023-06-14T11:36:31;100777.22;;;30.32;13.78
69737;BME280;64476;55.004;73.342;2023-06-14T11:39:35;100787.75;;;30.82;13.67
69737;BME280;64476;55.004;73.342;2023-06-14T11:42:39;100793.69;;;31.27;13.63
69737;BME280;64476;55.004;73.342;2023-06-14T11:46:14;100795.34;;;31.42;12.87
69737;BME280;64476;55.004;73.342;2023-06-14T11:49:25;100784.06;;;31.72;13.52
69737;BME280;64476;55.004;73.342;2023-06-14T11:52:29;100768.16;;;31.47;12.85
69737;BME280;64476;55.004;73.342;2023-06-14T11:55:42;100782.69;;;31.56;13.06
69737;BME280;64476;55.004;73.342;2023-06-14T11:58:46;100785.38;;;31.37;13.10
69737;BME280;64476;55.004;73.342;2023-06-14T12:01:47;100774.03;;;30.25;14.23
69737;BME280;64476;55.004;73.342;2023-06-14T12:04:49;100766.66;;;29.28;14.66
69737;BME280;64476;55.004;73.342;2023-06-14T12:11:33;100764.84;;;27.26;16.31
69737;BME280;64476;55.004;73.342;2023-06-14T12:14:35;100761.00;;;26.44;17.13
69737;BME280;64476;55.004;73.342;2023-06-14T12:17:38;100718.81;;;25.48;17.96
69737;BME280;64476;55.004;73.342;2023-06-14T12:21:13;100756.94;;;24.91;18.85
69737;BME280;64476;55.004;73.342;2023-06-14T12:24:15;100751.78;;;24.45;19.60
69737;BME280;64476;55.004;73.342;2023-06-14T12:27:23;100733.34;;;23.98;19.36
69737;BME280;64476;55.004;73.342;2023-06-14T12:30:30;100749.41;;;23.64;19.80
69737;BME280;64476;55.004;73.342;2023-06-14T12:33:31;100743.38;;;23.40;20.04
69737;BME280;64476;55.004;73.342;2023-06-14T12:36:33;100737.06;;;23.06;20.76
69737;BME280;64476;55.004;73.342;2023-06-14T12:39:37;100748.09;;;22.93;21.30
69737;BME280;64476;55.004;73.342;2023-06-14T12:42:41;100729.06;;;22.66;21.25
69737;BME280;64476;55.004;73.342;2023-06-14T12:45:52;100715.81;;;22.47;21.93
69737;BME280;64476;55.004;73.342;2023-06-14T12:49:26;100741.53;;;22.48;21.77
69737;BME280;64476;55.004;73.342;2023-06-14T12:52:27;100735.81;;;22.33;22.15
69737;BME280;64476;55.004;73.342;2023-06-14T12:55:29;100737.66;;;22.33;22.12
69737;BME280;64476;55.004;73.342;2023-06-14T12:58:31;100733.38;;;22.20;22.19
69737;BME280;64476;55.004;73.342;2023-06-14T13:01:33;100712.91;;;22.02;22.45
69737;BME280;64476;55.004;73.342;2023-06-14T13:04:34;100722.44;;;21.98;22.05
69737;BME280;64476;55.004;73.342;2023-06-14T13:07:36;100723.00;;;21.88;22.52
69737;BME280;64476;55.004;73.342;2023-06-14T13:10:38;100721.56;;;21.74;22.53
69737;BME280;64476;55.004;73.342;2023-06-14T13:13:40;100695.00;;;21.49;22.89
69737;BME280;64476;55.004;73.342;2023-06-14T13:16:42;100688.25;;;21.35;23.39
69737;BME280;64476;55.004;73.342;2023-06-14T13:19:44;100674.16;;;21.27;23.95
69737;BME280;64476;55.004;73.342;2023-06-14T13:22:46;100684.38;;;21.19;23.31
69737;BME280;64476;55.004;73.342;2023-06-14T13:25:52;100686.88;;;21.14;23.72
69737;BME280;64476;55.004;73.342;2023-06-14T13:28:54;100690.31;;;21.02;23.82
69737;BME280;64476;55.004;73.342;2023-06-14T13:31:56;100680.69;;;20.83;23.55
69737;BME280;64476;55.004;73.342;2023-06-14T13:39:05;100688.00;;;20.57;24.25
69737;BME280;64476;55.004;73.342;2023-06-14T13:42:08;100688.66;;;20.53;24.61
69737;BME280;64476;55.004;73.342;2023-06-14T13:45:11;100671.44;;;20.30;24.75
69737;BME280;64476;55.004;73.342;2023-06-14T13:48:12;100689.44;;;20.35;24.62
69737;BME280;64476;55.004;73.342;2023-06-14T13:54:57;100679.13;;;20.20;25.03
69737;BME280;64476;55.004;73.342;2023-06-14T13:58:35;100671.84;;;20.09;24.93
69737;BME280;64476;55.004;73.342;2023-06-14T14:02:08;100694.31;;;20.20;25.41
69737;BME280;64476;55.004;73.342;2023-06-14T14:05:10;100683.09;;;20.11;25.09
69737;BME280;64476;55.004;73.342;2023-06-14T14:08:43;100695.88;;;20.09;25.33
69737;BME280;64476;55.004;73.342;2023-06-14T14:11:45;100649.56;;;19.78;25.31
69737;BME280;64476;55.004;73.342;2023-06-14T14:14:47;100685.91;;;19.98;25.43
69737;BME280;64476;55.004;73.342;2023-06-14T14:17:50;100644.50;;;19.70;25.83
69737;BME280;64476;55.004;73.342;2023-06-14T14:20:52;100664.31;;;19.81;25.88
69737;BME280;64476;55.004;73.342;2023-06-14T14:23:54;100656.00;;;19.71;25.92
69737;BME280;64476;55.004;73.342;2023-06-14T14:26:56;100646.00;;;19.59;26.20
69737;BME280;64476;55.004;73.342;2023-06-14T14:30:01;100662.19;;;19.65;26.33
69737;BME280;64476;55.004;73.342;2023-06-14T14:33:07;100647.91;;;19.52;26.32
69737;BME280;64476;55.004;73.342;2023-06-14T14:36:09;100661.03;;;19.54;26.34
69737;BME280;64476;55.004;73.342;2023-06-14T14:39:11;100657.59;;;19.47;26.49
69737;BME280;64476;55.004;73.342;2023-06-14T14:42:13;100652.31;;;19.40;26.43
69737;BME280;64476;55.004;73.342;2023-06-14T14:48:48;100654.63;;;19.30;26.83
69737;BME280;64476;55.004;73.342;2023-06-14T14:51:50;100637.31;;;19.14;26.93
69737;BME280;64476;55.004;73.342;2023-06-14T14:54:52;100610.00;;;18.94;27.14
69737;BME280;64476;55.004;73.342;2023-06-14T14:57:57;100647.75;;;19.15;27.44
69737;BME280;64476;55.004;73.342;2023-06-14T15:00:58;100656.19;;;19.12;27.35
69737;BME280;64476;55.004;73.342;2023-06-14T15:04:03;100613.53;;;18.81;27.26
69737;BME280;64476;55.004;73.342;2023-06-14T15:07:05;100637.22;;;18.96;27.22
69737;BME280;64476;55.004;73.342;2023-06-14T15:10:09;100648.31;;;18.93;27.57
69737;BME280;64476;55.004;73.342;2023-06-14T15:13:12;100629.09;;;18.77;27.63
69737;BME280;64476;55.004;73.342;2023-06-14T15:16:15;100650.78;;;18.81;27.85
69737;BME280;64476;55.004;73.342;2023-06-14T15:19:18;100646.34;;;18.68;28.09
69737;BME280;64476;55.004;73.342;2023-06-14T15:22:21;100653.09;;;18.71;28.22
69737;BME280;64476;55.004;73.342;2023-06-14T15:25:23;100611.28;;;18.33;28.42
69737;BME280;64476;55.004;73.342;2023-06-14T15:28:25;100617.59;;;18.38;28.38
69737;BME280;64476;55.004;73.342;2023-06-14T15:31:29;100642.94;;;18.48;28.25
69737;BME280;64476;55.004;73.342;2023-06-14T15:34:32;100646.25;;;18.43;28.73
69737;BME280;64476;55.004;73.342;2023-06-14T15:38:07;100640.94;;;18.36;28.62
69737;BME280;64476;55.004;73.342;2023-06-14T15:41:09;100640.72;;;18.31;28.71
69737;BME280;64476;55.004;73.342;2023-06-14T15:44:11;100617.44;;;18.13;28.99
69737;BME280;64476;55.004;73.342;2023-06-14T15:47:17;100645.47;;;18.23;29.05
69737;BME280;64476;55.004;73.342;2023-06-14T15:50:19;100626.03;;;18.09;29.18
69737;BME280;64476;55.004;73.342;2023-06-14T15:53:21;100637.91;;;18.13;29.26
69737;BME280;64476;55.004;73.342;2023-06-14T15:56:23;100644.66;;;18.09;29.30
69737;BME280;64476;55.004;73.342;2023-06-14T15:59:25;100647.94;;;18.11;29.43
69737;BME280;64476;55.004;73.342;2023-06-14T16:02:29;100643.44;;;18.05;29.57
69737;BME280;64476;55.004;73.342;2023-06-14T16:05:31;100651.41;;;18.05;29.46
69737;BME280;64476;55.004;73.342;2023-06-14T16:08:34;100618.31;;;17.81;29.46
69737;BME280;64476;55.004;73.342;2023-06-14T16:11:36;100637.94;;;17.93;29.58
69737;BME280;64476;55.004;73.342;2023-06-14T16:14:38;100638.16;;;17.85;29.64
69737;BME280;64476;55.004;73.342;2023-06-14T16:17:40;100638.78;;;17.80;29.57
69737;BME280;64476;55.004;73.342;2023-06-14T16:20:41;100641.03;;;17.77;29.67
69737;BME280;64476;55.004;73.342;2023-06-14T16:23:43;100638.16;;;17.71;29.73
69737;BME280;64476;55.004;73.342;2023-06-14T16:26:45;100643.06;;;17.68;29.72
69737;BME280;64476;55.004;73.342;2023-06-14T16:29:47;100641.25;;;17.62;30.00
69737;BME280;64476;55.004;73.342;2023-06-14T16:32:48;100640.00;;;17.58;30.05
69737;BME280;64476;55.004;73.342;2023-06-14T16:35:52;100639.38;;;17.42;30.18
69737;BME280;64476;55.004;73.342;2023-06-14T16:38:54;100632.66;;;17.40;30.29
69737;BME280;64476;55.004;73.342;2023-06-14T16:41:56;100658.59;;;17.51;30.21
69737;BME280;64476;55.004;73.342;2023-06-14T16:44:58;100656.34;;;17.48;30.24
69737;BME280;64476;55.004;73.342;2023-06-14T16:48:01;100635.47;;;17.25;30.30